Terminal Aerodrome Forecast
Issued by NWS Charleston, WV

Home | Current Version | Previous Version | Text Only | Print | Product List | Glossary On
Versions: 1 2 3 4 5 6 7 8 9 10 11 12 13 14 15 16 17 18 19 20 21 22 23
000
FTUS41 KRLX 210200 AAA
TAFPKB
TAF AMD
KPKB 210229Z 2102/2124 VRB03KT 6SM -SHRA BR VCTS OVC060CB
      TEMPO 2103/2105 4SM -TSRA BR
     FM210500 23004KT P6SM BKN025
     FM210800 25004KT P6SM BKN035
     FM211300 28005KT P6SM BKN035
     FM211800 32007KT P6SM OVC025
     FM212000 31007KT P6SM OVC035=

USA.gov is the U.S. government's official web portal to all federal, state and local government web resources and services.